6B9

Skaneateles Aero Drome Airport

Skaneateles, New York, USA
METAR K6B9 251635Z AUTO 14009G19KT 080V210 10SM OVC045 17/14 A3016 RMK AO2
Observed Flight Rules
Sep-25 @ 16:35 UTC (28 minutes ago) Visual Flight Rules
Wind Visibility Clouds
140° at 9 knots
 Gusting to 19 knots
10 miles
  • Overcast at 4,500' AGL
Temperatures Readings
Current 17°C / 63°F
Dewpoint 14°C / 57°F
Humidity 83%
Altimeter 30.16" Hg
Pressure 1021 hPa
Elevation 316
METAR K6B9 251635Z AUTO 14009G19KT 080V210 10SM OVC045 17/14 A3016 RMK AO2
Observed Flight Rules
Sep-25 @ 16:35 UTC
(28 minutes ago)
VFR
Wind Visibility
140° at 9 knots
 Gusting to 19 knots
10 miles
Clouds
  • Overcast at 4,500' AGL
Temperature Dewpoint
17°C / 63°F 14°C / 57°F
Humidity Altimeter Pressure
83% 30.16" Hg 1021 hPa